Terminal Aerodrome Forecast
Issued by NWS

Home | Current Version | Previous Version | Text Only | Print | Product List | Glossary On
Versions: 1 2 3 4 5 6 7 8 9 10 11 12 13 14 15 16 17 18 19 20 21
000
FTUS43 KDLH 240400 AAB
TAFHIB
TAF AMD
KHIB 240411Z 2404/2424 22012KT 6SM -SN SCT025 OVC050 WS020/24045KT
      TEMPO 2404/2407 1 1/2SM -SN BKN025
     FM240900 29010KT 6SM -SHSN BKN025
     FM241300 32014KT P6SM SCT025 BKN050
     FM242200 32012KT P6SM SCT015 BKN080=

USA.gov is the U.S. government's official web portal to all federal, state and local government web resources and services.